createdAt,value
2023-04-12T00:02:23.906Z,100.00
2023-04-12T00:04:50.401Z,100.00
2023-04-12T00:07:16.625Z,100.00
2023-04-12T00:09:43.051Z,100.00
2023-04-12T00:12:09.712Z,100.00
2023-04-12T00:14:37.361Z,100.00
2023-04-12T00:17:03.779Z,100.00
2023-04-12T00:19:30.274Z,100.00
2023-04-12T00:21:56.668Z,100.00
2023-04-12T00:24:23.036Z,100.00
2023-04-12T00:26:49.467Z,100.00
2023-04-12T00:29:15.883Z,100.00
2023-04-12T00:31:42.295Z,100.00
2023-04-12T00:34:08.723Z,100.00
2023-04-12T00:36:35.114Z,100.00
2023-04-12T00:39:03.890Z,100.00
2023-04-12T00:41:30.312Z,100.00
2023-04-12T00:43:57.061Z,100.00
2023-04-12T00:46:23.138Z,100.00
2023-04-12T00:48:49.518Z,100.00
2023-04-12T00:51:15.949Z,100.00
2023-04-12T00:53:42.349Z,100.00
2023-04-12T00:56:08.748Z,100.00
2023-04-12T00:58:35.091Z,100.00
2023-04-12T01:01:01.573Z,100.00
2023-04-12T01:03:28.200Z,100.00
2023-04-12T01:05:54.232Z,100.00
2023-04-12T01:08:20.604Z,100.00
2023-04-12T01:10:47.026Z,100.00
2023-04-12T01:13:13.420Z,100.00
2023-04-12T01:15:39.828Z,100.00
2023-04-12T01:18:06.292Z,100.00
2023-04-12T01:20:32.702Z,100.00
2023-04-12T01:22:59.109Z,100.00
2023-04-12T01:25:25.493Z,100.00
2023-04-12T01:27:51.909Z,100.00
2023-04-12T01:30:18.328Z,100.00
2023-04-12T01:32:44.765Z,100.00
2023-04-12T01:35:11.119Z,100.00
2023-04-12T01:37:37.510Z,100.00
2023-04-12T01:40:03.889Z,100.00
2023-04-12T01:42:30.287Z,100.00
2023-04-12T01:44:56.703Z,100.00
2023-04-12T01:47:23.152Z,100.00
2023-04-12T01:49:49.505Z,100.00
2023-04-12T01:52:15.922Z,100.00
2023-04-12T01:54:42.337Z,100.00
2023-04-12T01:57:08.803Z,100.00
2023-04-12T01:59:35.178Z,100.00
2023-04-12T02:02:01.621Z,100.00
2023-04-12T02:04:28.041Z,100.00
2023-04-12T02:06:56.833Z,100.00
2023-04-12T02:09:23.209Z,100.00
2023-04-12T02:11:49.676Z,100.00
2023-04-12T02:14:16.028Z,100.00
2023-04-12T02:16:43.570Z,100.00
2023-04-12T02:19:09.964Z,100.00
2023-04-12T02:21:36.372Z,100.00
2023-04-12T02:24:02.795Z,100.00
2023-04-12T02:26:29.147Z,100.00
2023-04-12T02:28:55.525Z,100.00
2023-04-12T02:31:21.955Z,100.00
2023-04-12T02:33:48.341Z,100.00
2023-04-12T02:36:14.771Z,100.00
2023-04-12T02:38:41.281Z,100.00
2023-04-12T02:41:07.659Z,100.00
2023-04-12T02:43:34.068Z,100.00
2023-04-12T02:46:00.498Z,100.00
2023-04-12T02:48:26.854Z,100.00
2023-04-12T02:50:53.272Z,100.00
2023-04-12T02:53:19.677Z,100.00
2023-04-12T02:55:46.073Z,100.00
2023-04-12T02:58:12.472Z,100.00
2023-04-12T03:00:38.840Z,100.00
2023-04-12T03:03:05.396Z,100.00
2023-04-12T03:05:31.623Z,100.00
2023-04-12T03:07:57.999Z,100.00
2023-04-12T03:10:24.389Z,100.00
2023-04-12T03:12:50.763Z,100.00
2023-04-12T03:15:17.129Z,100.00
2023-04-12T03:17:43.594Z,100.00
2023-04-12T03:20:10.121Z,100.00
2023-04-12T03:22:36.331Z,100.00
2023-04-12T03:25:02.805Z,100.00
2023-04-12T03:27:29.164Z,100.00
2023-04-12T03:29:55.524Z,100.00
2023-04-12T03:32:21.953Z,100.00
2023-04-12T03:34:48.360Z,100.00
2023-04-12T03:37:14.817Z,100.00
2023-04-12T03:39:41.181Z,100.00
2023-04-12T03:42:10.173Z,100.00
2023-04-12T03:44:34.178Z,100.00
2023-04-12T03:47:00.660Z,100.00
2023-04-12T03:49:27.006Z,100.00
2023-04-12T03:51:53.372Z,100.00
2023-04-12T03:54:19.788Z,100.00
2023-04-12T03:56:46.774Z,100.00
2023-04-12T03:59:13.125Z,100.00
2023-04-12T04:01:39.554Z,100.00
2023-04-12T04:04:05.967Z,100.00
2023-04-12T04:06:32.417Z,100.00
2023-04-12T04:08:58.775Z,100.00
2023-04-12T04:11:25.150Z,100.00
2023-04-12T04:13:51.553Z,100.00
2023-04-12T04:16:18.237Z,100.00
2023-04-12T04:18:44.552Z,100.00
2023-04-12T04:21:10.938Z,100.00
2023-04-12T04:23:37.312Z,100.00
2023-04-12T04:26:03.899Z,100.00
2023-04-12T04:28:30.304Z,100.00
2023-04-12T04:30:56.713Z,100.00
2023-04-12T04:33:23.186Z,100.00
2023-04-12T04:35:49.651Z,100.00
2023-04-12T04:38:16.296Z,100.00
2023-04-12T04:40:42.742Z,100.00
2023-04-12T04:43:09.157Z,100.00
2023-04-12T04:45:35.726Z,100.00
2023-04-12T04:48:02.099Z,100.00
2023-04-12T04:50:28.332Z,100.00
2023-04-12T04:52:54.735Z,100.00
2023-04-12T04:55:21.182Z,100.00
2023-04-12T04:57:47.666Z,100.00
2023-04-12T05:00:14.059Z,100.00
2023-04-12T05:02:40.618Z,100.00
2023-04-12T05:05:06.907Z,100.00
2023-04-12T05:07:33.483Z,100.00
2023-04-12T05:09:59.896Z,100.00
2023-04-12T05:12:26.274Z,100.00
2023-04-12T05:14:52.718Z,100.00
2023-04-12T05:17:19.129Z,100.00
2023-04-12T05:19:45.547Z,100.00
2023-04-12T05:22:11.912Z,100.00
2023-04-12T05:24:38.299Z,100.00
2023-04-12T05:27:04.700Z,100.00
2023-04-12T05:29:33.719Z,100.00
2023-04-12T05:32:00.104Z,100.00
2023-04-12T05:34:26.831Z,100.00
2023-04-12T05:36:53.242Z,100.00
2023-04-12T05:39:20.922Z,100.00
2023-04-12T05:41:47.216Z,100.00
2023-04-12T05:44:13.623Z,100.00
2023-04-12T05:46:40.065Z,100.00
2023-04-12T05:49:06.493Z,100.00
2023-04-12T05:51:40.918Z,100.00
2023-04-12T05:53:59.427Z,100.00
2023-04-12T05:56:25.816Z,100.00
2023-04-12T05:58:52.190Z,100.00
2023-04-12T06:01:18.646Z,100.00
2023-04-12T06:03:45.367Z,100.00
2023-04-12T06:06:11.652Z,100.00
2023-04-12T06:08:38.050Z,100.00
2023-04-12T06:11:04.519Z,100.00
2023-04-12T06:13:30.880Z,100.00
2023-04-12T06:15:57.608Z,100.00
2023-04-12T06:18:24.035Z,100.00
2023-04-12T06:20:50.464Z,100.00
2023-04-12T06:23:17.270Z,100.00
2023-04-12T06:25:46.078Z,100.00
2023-04-12T06:28:12.542Z,100.00
2023-04-12T06:30:38.918Z,100.00
2023-04-12T06:33:05.320Z,100.00
2023-04-12T06:35:31.733Z,100.00
2023-04-12T06:37:58.069Z,100.00
2023-04-12T06:40:24.440Z,100.00
2023-04-12T06:42:50.833Z,100.00
2023-04-12T06:45:19.392Z,100.00
2023-04-12T06:47:45.811Z,100.00
2023-04-12T06:50:12.216Z,100.00
2023-04-12T06:52:38.681Z,100.00
2023-04-12T06:55:05.079Z,100.00
2023-04-12T06:57:31.564Z,100.00
2023-04-12T06:59:57.994Z,100.00
2023-04-12T07:02:24.525Z,100.00
2023-04-12T07:04:50.828Z,100.00
2023-04-12T07:07:17.243Z,100.00
2023-04-12T07:09:43.605Z,100.00
2023-04-12T07:12:10.033Z,100.00
2023-04-12T07:14:36.395Z,100.00
2023-04-12T07:17:04.009Z,100.00
2023-04-12T07:19:29.202Z,100.00
2023-04-12T07:21:55.571Z,100.00
2023-04-12T07:24:21.927Z,99.14
2023-04-12T07:26:48.363Z,95.88
2023-04-12T07:29:14.894Z,93.33
2023-04-12T07:31:41.299Z,91.44
2023-04-12T07:34:07.909Z,90.33
2023-04-12T07:36:34.419Z,89.72
2023-04-12T07:39:00.864Z,89.35
2023-04-12T07:41:27.157Z,89.00
2023-04-12T07:43:53.558Z,88.77
2023-04-12T07:46:20.266Z,88.70
2023-04-12T07:48:46.593Z,88.43
2023-04-12T07:51:13.013Z,88.13
2023-04-12T07:53:39.478Z,87.54
2023-04-12T07:56:05.891Z,86.45
2023-04-12T07:58:32.253Z,85.24
2023-04-12T08:01:00.954Z,84.56
2023-04-12T08:03:25.117Z,83.81
2023-04-12T08:05:51.450Z,83.37
2023-04-12T08:08:17.797Z,83.04
2023-04-12T08:10:44.296Z,83.16
2023-04-12T08:13:10.671Z,83.36
2023-04-12T08:15:37.062Z,83.63
2023-04-12T08:18:03.509Z,83.86
2023-04-12T08:20:29.894Z,83.99
2023-04-12T08:22:56.271Z,83.97
2023-04-12T08:25:22.904Z,84.08
2023-04-12T08:27:49.342Z,83.93
2023-04-12T08:30:15.675Z,83.14
2023-04-12T08:32:42.074Z,82.27
2023-04-12T08:35:08.440Z,81.24
2023-04-12T08:37:34.864Z,80.36
2023-04-12T08:40:01.232Z,79.56
2023-04-12T08:42:27.625Z,79.09
2023-04-12T08:44:54.047Z,78.52
2023-04-12T08:47:20.491Z,77.92
2023-04-12T08:49:46.840Z,78.10
2023-04-12T08:52:13.500Z,78.05
2023-04-12T08:54:40.129Z,77.77
2023-04-12T08:57:06.554Z,77.40
2023-04-12T08:59:32.936Z,76.93
2023-04-12T09:01:59.445Z,76.57
2023-04-12T09:04:25.859Z,76.04
2023-04-12T09:06:52.110Z,75.70
2023-04-12T09:09:18.469Z,75.05
2023-04-12T09:11:45.208Z,74.48
2023-04-12T09:14:11.584Z,73.59
2023-04-12T09:16:38.028Z,73.24
2023-04-12T09:19:04.615Z,72.66
2023-04-12T09:21:31.025Z,72.29
2023-04-12T09:23:57.577Z,71.86
2023-04-12T09:26:24.028Z,71.41
2023-04-12T09:28:50.405Z,70.97
2023-04-12T09:31:16.841Z,70.69
2023-04-12T09:33:43.218Z,70.45
2023-04-12T09:36:09.659Z,70.34
2023-04-12T09:38:35.973Z,70.20
2023-04-12T09:41:02.345Z,69.94
2023-04-12T09:43:28.715Z,69.92
2023-04-12T09:45:55.204Z,69.68
2023-04-12T09:48:21.552Z,69.51
2023-04-12T09:50:47.925Z,69.10
2023-04-12T09:53:14.349Z,68.93
2023-04-12T09:55:40.734Z,68.29
2023-04-12T09:58:07.170Z,68.00
2023-04-12T10:00:34.591Z,68.44
2023-04-12T10:03:00.894Z,68.70
2023-04-12T10:05:27.918Z,68.87
2023-04-12T10:07:53.541Z,68.74
2023-04-12T10:10:20.101Z,68.35
2023-04-12T10:12:46.387Z,68.30
2023-04-12T10:15:12.801Z,68.48
2023-04-12T10:17:39.418Z,68.56
2023-04-12T10:20:05.806Z,68.00
2023-04-12T10:22:32.153Z,67.63
2023-04-12T10:24:58.584Z,67.59
2023-04-12T10:27:25.021Z,67.71
2023-04-12T10:29:51.413Z,68.00
2023-04-12T10:32:17.812Z,68.05
2023-04-12T10:34:44.204Z,68.05
2023-04-12T10:37:10.645Z,67.90
2023-04-12T10:39:37.046Z,67.60
2023-04-12T10:42:03.436Z,67.04
2023-04-12T10:44:29.857Z,66.79
2023-04-12T10:46:56.266Z,66.12
2023-04-12T10:49:22.649Z,65.36
2023-04-12T10:51:49.021Z,65.09
2023-04-12T10:54:15.442Z,64.79
2023-04-12T10:56:41.896Z,64.64
2023-04-12T10:59:08.294Z,64.39
2023-04-12T11:01:36.043Z,64.03
2023-04-12T11:04:01.256Z,63.86
2023-04-12T11:06:28.016Z,63.50
2023-04-12T11:08:53.851Z,63.21
2023-04-12T11:11:20.508Z,63.04
2023-04-12T11:13:46.924Z,62.89
2023-04-12T11:16:13.615Z,62.70
2023-04-12T11:18:40.087Z,62.22
2023-04-12T11:21:06.530Z,62.09
2023-04-12T11:23:32.938Z,62.03
2023-04-12T11:25:59.296Z,61.89
2023-04-12T11:28:29.779Z,61.72
2023-04-12T11:30:52.142Z,61.63
2023-04-12T11:33:18.519Z,61.50
2023-04-12T11:35:44.978Z,61.51
2023-04-12T11:38:11.397Z,61.28
2023-04-12T11:40:38.062Z,61.06
2023-04-12T11:43:04.482Z,61.06
2023-04-12T11:45:31.111Z,61.21
2023-04-12T11:47:57.501Z,61.10
2023-04-12T11:50:24.051Z,60.96
2023-04-12T11:52:50.470Z,60.95
2023-04-12T11:55:17.022Z,61.00
2023-04-12T11:57:43.439Z,61.06
2023-04-12T12:00:09.873Z,61.24
2023-04-12T12:02:41.139Z,61.04
2023-04-12T12:05:03.172Z,61.01
2023-04-12T12:07:29.765Z,61.20
2023-04-12T12:09:55.619Z,61.05
2023-04-12T12:12:22.055Z,60.88
2023-04-12T12:14:48.455Z,61.05
2023-04-12T12:17:15.241Z,60.96
2023-04-12T12:19:41.692Z,61.03
2023-04-12T12:22:08.071Z,61.06
2023-04-12T12:24:36.305Z,61.14
2023-04-12T12:27:01.146Z,61.13
2023-04-12T12:29:27.561Z,60.93
2023-04-12T12:31:54.017Z,60.44
2023-04-12T12:34:20.358Z,60.53
2023-04-12T12:36:47.038Z,60.59
2023-04-12T12:39:13.666Z,60.36
2023-04-12T12:41:40.121Z,60.54
2023-04-12T12:44:06.500Z,60.42
2023-04-12T12:46:48.728Z,60.21
2023-04-12T12:48:59.493Z,60.02
2023-04-12T12:51:25.921Z,60.11
2023-04-12T12:53:52.288Z,59.86
2023-04-12T12:56:18.728Z,60.07
2023-04-12T12:58:45.166Z,60.10
2023-04-12T13:01:11.551Z,60.39
2023-04-12T13:03:38.063Z,60.40
2023-04-12T13:06:04.393Z,60.49
2023-04-12T13:08:30.794Z,60.82
2023-04-12T13:10:57.211Z,61.17
2023-04-12T13:13:23.664Z,61.33
2023-04-12T13:15:50.061Z,61.51
2023-04-12T13:18:16.425Z,61.95
2023-04-12T13:20:44.053Z,62.40
2023-04-12T13:23:10.494Z,62.50
2023-04-12T13:25:36.902Z,62.63
2023-04-12T13:28:03.362Z,62.83
2023-04-12T13:30:29.791Z,62.92
2023-04-12T13:32:56.323Z,63.15
2023-04-12T13:35:22.656Z,63.28
2023-04-12T13:37:49.038Z,63.65
2023-04-12T13:40:15.435Z,63.88
2023-04-12T13:42:42.094Z,64.07
2023-04-12T13:45:08.464Z,64.31
2023-04-12T13:47:35.040Z,64.55
2023-04-12T13:50:01.481Z,64.87
2023-04-12T13:52:27.915Z,64.98
2023-04-12T13:54:54.329Z,65.05
2023-04-12T13:57:20.715Z,65.26
2023-04-12T13:59:47.147Z,65.45
2023-04-12T14:02:13.585Z,65.62
2023-04-12T14:04:40.007Z,66.01
2023-04-12T14:07:06.335Z,66.39
2023-04-12T14:09:32.732Z,66.51
2023-04-12T14:11:59.206Z,66.93
2023-04-12T14:14:25.595Z,67.31
2023-04-12T14:16:52.101Z,67.64
2023-04-12T14:19:18.368Z,67.92
2023-04-12T14:21:44.910Z,68.32
2023-04-12T14:24:13.683Z,68.59
2023-04-12T14:26:43.760Z,68.95
2023-04-12T14:29:10.658Z,69.33
2023-04-12T14:31:38.101Z,69.74
2023-04-12T14:34:04.461Z,70.11
2023-04-12T14:36:33.500Z,70.42
2023-04-12T14:38:59.852Z,70.80
2023-04-12T14:41:26.231Z,71.08
2023-04-12T14:43:52.604Z,71.45
2023-04-12T14:46:19.132Z,71.79
2023-04-12T14:48:45.392Z,72.05
2023-04-12T14:51:11.812Z,72.34
2023-04-12T14:53:38.245Z,72.71
2023-04-12T14:56:04.936Z,73.07
2023-04-12T14:58:31.356Z,73.26
2023-04-12T15:00:57.780Z,73.51
2023-04-12T15:03:25.754Z,73.85
2023-04-12T15:05:52.042Z,74.11
2023-04-12T15:08:18.461Z,74.42
2023-04-12T15:10:44.823Z,74.70
2023-04-12T15:13:11.308Z,74.87
2023-04-12T15:15:37.634Z,75.17
2023-04-12T15:18:04.034Z,75.42
2023-04-12T15:20:30.432Z,75.66
2023-04-12T15:22:56.847Z,75.89
2023-04-12T15:25:23.425Z,76.08
2023-04-12T15:27:49.806Z,76.36
2023-04-12T15:30:16.224Z,76.68
2023-04-12T15:32:43.634Z,76.92
2023-04-12T15:35:25.420Z,77.20
2023-04-12T15:37:36.449Z,77.41
2023-04-12T15:40:02.736Z,77.65
2023-04-12T15:42:29.170Z,77.81
2023-04-12T15:44:56.633Z,78.10
2023-04-12T15:47:23.078Z,78.40
2023-04-12T15:49:49.469Z,78.54
2023-04-12T15:52:15.871Z,78.74
2023-04-12T15:54:44.047Z,78.93
2023-04-12T15:57:08.737Z,79.10
2023-04-12T15:59:35.113Z,79.24
2023-04-12T16:02:01.635Z,79.47
2023-04-12T16:04:28.122Z,79.65
2023-04-12T16:06:54.411Z,79.93
2023-04-12T16:09:20.880Z,80.22
2023-04-12T16:11:47.239Z,80.48
2023-04-12T16:14:13.733Z,80.72
2023-04-12T16:16:40.437Z,80.79
2023-04-12T16:19:06.502Z,80.95
2023-04-12T16:21:33.313Z,81.03
2023-04-12T16:23:59.722Z,81.23
2023-04-12T16:26:28.299Z,81.27
2023-04-12T16:28:54.794Z,81.50
2023-04-12T16:31:21.324Z,81.57
2023-04-12T16:33:47.617Z,81.71
2023-04-12T16:36:14.253Z,81.85
2023-04-12T16:38:40.615Z,82.01
2023-04-12T16:41:06.996Z,82.18
2023-04-12T16:43:33.470Z,82.35
2023-04-12T16:45:59.886Z,82.48
2023-04-12T16:48:26.257Z,82.65
2023-04-12T16:50:52.661Z,82.75
2023-04-12T16:53:19.079Z,82.92
2023-04-12T16:55:45.511Z,82.96
2023-04-12T16:58:11.946Z,83.09
2023-04-12T17:00:38.499Z,83.18
2023-04-12T17:03:05.067Z,83.33
2023-04-12T17:05:31.380Z,83.40
2023-04-12T17:07:57.745Z,83.52
2023-04-12T17:10:24.690Z,83.63
2023-04-12T17:12:50.963Z,83.77
2023-04-12T17:15:17.463Z,83.96
2023-04-12T17:17:43.939Z,84.11
2023-04-12T17:20:10.296Z,84.16
2023-04-12T17:22:36.934Z,84.27
2023-04-12T17:25:03.323Z,84.38
2023-04-12T17:27:30.030Z,84.54
2023-04-12T17:29:56.457Z,84.73
2023-04-12T17:32:23.175Z,84.71
2023-04-12T17:34:49.545Z,84.85
2023-04-12T17:37:15.917Z,84.97
2023-04-12T17:39:42.337Z,85.08
2023-04-12T17:42:08.910Z,85.13
2023-04-12T17:44:35.382Z,85.29
2023-04-12T17:47:01.798Z,85.36
2023-04-12T17:49:28.211Z,85.46
2023-04-12T17:51:54.968Z,85.54
2023-04-12T17:54:21.736Z,85.59
2023-04-12T17:56:48.397Z,85.54
2023-04-12T17:59:14.778Z,85.61
2023-04-12T18:01:41.328Z,85.70
2023-04-12T18:04:07.940Z,85.77
2023-04-12T18:06:34.117Z,85.88
2023-04-12T18:09:00.496Z,85.79
2023-04-12T18:11:26.923Z,86.02
2023-04-12T18:13:53.296Z,86.09
2023-04-12T18:16:19.776Z,86.21
2023-04-12T18:18:46.189Z,86.21
2023-04-12T18:21:12.541Z,86.41
2023-04-12T18:23:38.963Z,86.55
2023-04-12T18:26:05.422Z,86.82
2023-04-12T18:28:31.992Z,86.93
2023-04-12T18:30:58.383Z,87.18
2023-04-12T18:33:27.876Z,87.21
2023-04-12T18:35:54.258Z,87.62
2023-04-12T18:38:20.870Z,87.72
2023-04-12T18:40:47.317Z,87.78
2023-04-12T18:43:13.838Z,87.90
2023-04-12T18:45:40.209Z,88.12
2023-04-12T18:48:06.718Z,88.37
2023-04-12T18:50:33.084Z,88.55
2023-04-12T18:52:59.497Z,88.72
2023-04-12T18:55:25.970Z,89.02
2023-04-12T18:57:52.417Z,89.28
2023-04-12T19:00:18.787Z,89.77
2023-04-12T19:02:45.297Z,90.14
2023-04-12T19:05:11.660Z,90.34
2023-04-12T19:07:38.056Z,90.53
2023-04-12T19:10:04.428Z,90.65
2023-04-12T19:12:30.834Z,90.82
2023-04-12T19:14:57.322Z,91.32
2023-04-12T19:17:23.791Z,91.71
2023-04-12T19:19:50.084Z,91.98
2023-04-12T19:22:16.535Z,92.30
2023-04-12T19:24:45.054Z,92.33
2023-04-12T19:27:11.439Z,92.51
2023-04-12T19:29:39.051Z,92.55
2023-04-12T19:32:06.094Z,93.01
2023-04-12T19:34:32.416Z,93.23
2023-04-12T19:36:58.850Z,93.49
2023-04-12T19:39:25.200Z,93.67
2023-04-12T19:41:51.686Z,94.13
2023-04-12T19:44:18.109Z,94.25
2023-04-12T19:46:44.447Z,94.49
2023-04-12T19:49:10.823Z,94.58
2023-04-12T19:51:37.289Z,94.78
2023-04-12T19:54:03.784Z,95.13
2023-04-12T19:56:30.148Z,95.14
2023-04-12T19:58:56.743Z,95.35
2023-04-12T20:01:23.052Z,95.49
2023-04-12T20:03:50.091Z,95.64
2023-04-12T20:06:16.458Z,95.90
2023-04-12T20:08:42.874Z,96.18
2023-04-12T20:11:09.293Z,96.30
2023-04-12T20:13:36.840Z,96.45
2023-04-12T20:16:03.219Z,96.81
2023-04-12T20:18:29.691Z,96.79
2023-04-12T20:20:58.239Z,97.05
2023-04-12T20:23:24.617Z,97.24
2023-04-12T20:25:50.991Z,97.32
2023-04-12T20:28:17.472Z,97.48
2023-04-12T20:30:46.300Z,97.80
2023-04-12T20:33:12.780Z,97.88
2023-04-12T20:35:39.089Z,98.13
2023-04-12T20:38:05.467Z,98.14
2023-04-12T20:40:31.883Z,98.30
2023-04-12T20:42:58.304Z,98.46
2023-04-12T20:45:24.702Z,98.56
2023-04-12T20:47:51.221Z,98.71
2023-04-12T20:50:17.538Z,98.77
2023-04-12T20:52:43.955Z,99.00
2023-04-12T20:55:10.853Z,99.15
2023-04-12T20:57:37.254Z,99.12
2023-04-12T21:00:03.618Z,99.18
2023-04-12T21:02:30.172Z,99.30
2023-04-12T21:04:58.165Z,99.27
2023-04-12T21:07:23.907Z,99.53
2023-04-12T21:09:50.281Z,99.61
2023-04-12T21:12:16.669Z,99.69
2023-04-12T21:14:43.046Z,99.63
2023-04-12T21:17:09.454Z,99.89
2023-04-12T21:19:35.833Z,99.97
2023-04-12T21:22:03.409Z,100.00
2023-04-12T21:24:31.133Z,100.00
2023-04-12T21:26:57.500Z,100.00
2023-04-12T21:29:23.870Z,100.00
2023-04-12T21:31:50.296Z,100.00
2023-04-12T21:34:16.633Z,100.00
2023-04-12T21:36:43.021Z,100.00
2023-04-12T21:39:09.388Z,100.00
2023-04-12T21:41:35.769Z,100.00
2023-04-12T21:44:02.147Z,100.00
2023-04-12T21:46:28.673Z,100.00
2023-04-12T21:48:54.948Z,100.00
2023-04-12T21:51:21.326Z,100.00
2023-04-12T21:53:47.702Z,100.00
2023-04-12T21:56:14.082Z,100.00
2023-04-12T21:58:40.488Z,100.00
2023-04-12T22:01:06.901Z,100.00
2023-04-12T22:03:35.694Z,100.00
2023-04-12T22:06:04.638Z,100.00
2023-04-12T22:08:28.437Z,100.00
2023-04-12T22:10:54.821Z,100.00
2023-04-12T22:13:21.224Z,100.00
2023-04-12T22:15:47.642Z,100.00
2023-04-12T22:18:14.002Z,100.00
2023-04-12T22:20:40.375Z,100.00
2023-04-12T22:23:06.770Z,100.00
2023-04-12T22:25:33.160Z,100.00
2023-04-12T22:27:59.544Z,100.00
2023-04-12T22:30:25.967Z,100.00
2023-04-12T22:32:52.351Z,100.00
2023-04-12T22:35:18.704Z,100.00
2023-04-12T22:37:45.079Z,100.00
2023-04-12T22:40:11.544Z,100.00
2023-04-12T22:42:38.109Z,100.00
2023-04-12T22:45:04.495Z,100.00
2023-04-12T22:47:30.878Z,100.00
2023-04-12T22:49:57.261Z,100.00
2023-04-12T22:52:23.621Z,100.00
2023-04-12T22:54:50.012Z,100.00
2023-04-12T22:57:17.227Z,100.00
2023-04-12T22:59:43.810Z,100.00
2023-04-12T23:02:10.271Z,100.00
2023-04-12T23:04:36.606Z,100.00
2023-04-12T23:07:03.016Z,99.90
2023-04-12T23:09:29.433Z,99.72
2023-04-12T23:11:55.817Z,99.81
2023-04-12T23:14:22.383Z,99.89
2023-04-12T23:16:48.726Z,99.88
2023-04-12T23:19:15.251Z,99.82
2023-04-12T23:21:41.690Z,100.00
2023-04-12T23:24:08.138Z,100.00
2023-04-12T23:26:34.564Z,100.00
2023-04-12T23:29:00.899Z,100.00
2023-04-12T23:31:27.382Z,100.00
2023-04-12T23:33:53.764Z,100.00
2023-04-12T23:36:20.130Z,100.00
2023-04-12T23:38:46.604Z,100.00
2023-04-12T23:41:13.005Z,100.00
2023-04-12T23:43:39.373Z,100.00
2023-04-12T23:46:05.842Z,100.00
2023-04-12T23:48:36.842Z,100.00
2023-04-12T23:51:03.269Z,100.00
2023-04-12T23:53:29.806Z,100.00
2023-04-12T23:55:56.201Z,100.00
2023-04-12T23:58:22.563Z,100.00
